Terminal Aerodrome Forecast
Issued by NWS

Home | Current Version | Previous Version | Text Only | Print | Product List | Glossary On
Versions: 1 2 3 4 5 6 7 8 9 10 11 12 13 14 15 16 17 18 19
003
FTUS43 KDVN 150532
TAFBRL
TAF
KBRL 150532Z 1506/1606 18008KT 1SM -SN BR VV012
      TEMPO 1506/1507 4SM -SN BR
     FM150900 30011G18KT 6SM -SHSN BR OVC015
     FM151300 31016G26KT P6SM OVC030
     FM160000 31014G23KT P6SM BKN025=

USA.gov is the U.S. government's official web portal to all federal, state and local government web resources and services.